Time;durP1;ratioP1;P1;durP2;ratioP2;P2;SDS_P1;SDS_P2;PMS_P1;PMS_P2;Temp;Humidity;BMP_temperature;BMP_pressure;BME280_temperature;BME280_humidity;BME280_pressure;Samples;Min_cycle;Max_cycle;Signal;HPM_P1;HPM_P2
2022/02/15 00:01:58;;;;;;;3.35;1.02;;;6.50;99.90;;;;;;4995013;28;20034;-74
2022/02/15 00:04:24;;;;;;;3.53;1.05;;;6.50;99.90;;;;;;4977721;28;20045;-74
2022/02/15 00:06:51;;;;;;;2.40;1.00;;;6.50;99.90;;;;;;4976842;28;21245;-75
2022/02/15 00:09:17;;;;;;;2.45;1.20;;;6.60;99.90;;;;;;4982745;28;20497;-75
2022/02/15 00:11:43;;;;;;;4.07;1.27;;;6.60;99.90;;;;;;4979661;28;20030;-74
2022/02/15 00:14:10;;;;;;;4.18;1.58;;;6.60;99.90;;;;;;4974347;28;20038;-74
2022/02/15 00:16:37;;;;;;;3.08;1.52;;;6.60;99.90;;;;;;4976186;28;20041;-75
2022/02/15 00:19:05;;;;;;;6.63;1.80;;;6.60;99.90;;;;;;4991062;28;20046;-74
2022/02/15 00:21:32;;;;;;;4.38;1.17;;;6.60;99.90;;;;;;4974010;28;20043;-73
2022/02/15 00:23:59;;;;;;;4.45;2.08;;;6.70;99.90;;;;;;4992827;28;20046;-74
2022/02/15 00:26:25;;;;;;;4.97;1.77;;;6.70;99.90;;;;;;4979594;28;20038;-73
2022/02/15 00:28:52;;;;;;;5.53;2.38;;;6.70;99.90;;;;;;4979201;28;20026;-75
2022/02/15 00:31:18;;;;;;;4.93;2.05;;;6.80;99.90;;;;;;4976548;28;20475;-74
2022/02/15 00:33:45;;;;;;;2.95;1.75;;;6.80;99.90;;;;;;4976255;28;20034;-74
2022/02/15 00:36:15;;;;;;;5.45;2.65;;;6.80;99.90;;;;;;4961819;28;20510;-75
2022/02/15 00:38:42;;;;;;;3.33;2.15;;;6.80;99.90;;;;;;4973608;28;20030;-73
2022/02/15 00:41:09;;;;;;;5.32;2.33;;;6.80;99.90;;;;;;4994320;28;20096;-73
2022/02/15 00:43:35;;;;;;;2.83;2.05;;;6.80;99.90;;;;;;4978368;28;20415;-74
2022/02/15 00:46:04;;;;;;;5.00;2.38;;;6.80;99.90;;;;;;4979981;28;20390;-73
2022/02/15 00:48:31;;;;;;;5.03;2.35;;;6.80;99.90;;;;;;4959630;28;20039;-74
2022/02/15 00:50:57;;;;;;;4.05;2.00;;;6.80;99.90;;;;;;4992858;28;20042;-75
2022/02/15 00:53:24;;;;;;;4.47;2.13;;;6.80;99.90;;;;;;4957394;28;20043;-74
2022/02/15 00:55:50;;;;;;;5.05;1.70;;;6.80;99.90;;;;;;4978398;28;20049;-74
2022/02/15 00:58:17;;;;;;;5.80;2.15;;;6.80;99.90;;;;;;4976617;28;20029;-73
2022/02/15 01:00:43;;;;;;;4.78;2.63;;;6.80;99.90;;;;;;4953737;28;20045;-73
2022/02/15 01:03:10;;;;;;;5.68;2.53;;;6.80;99.90;;;;;;4993350;28;20033;-74
2022/02/15 01:05:36;;;;;;;4.50;2.72;;;6.90;99.90;;;;;;4992909;28;20513;-73
2022/02/15 01:08:06;;;;;;;5.13;2.15;;;6.80;99.90;;;;;;4945881;28;20042;-74
2022/02/15 01:10:33;;;;;;;4.72;2.50;;;6.90;99.90;;;;;;4976726;28;20061;-74
2022/02/15 01:12:59;;;;;;;12.27;5.55;;;6.90;99.90;;;;;;4973904;28;20030;-74
2022/02/15 01:15:26;;;;;;;4.45;2.65;;;6.90;99.90;;;;;;4965886;28;20034;-74
2022/02/15 01:17:52;;;;;;;5.22;1.95;;;6.90;99.90;;;;;;4994203;28;20057;-74
2022/02/15 01:20:19;;;;;;;6.07;2.72;;;6.90;99.90;;;;;;4979592;28;20138;-74
2022/02/15 01:22:45;;;;;;;5.22;2.22;;;6.90;99.90;;;;;;4955065;28;20046;-74
2022/02/15 01:25:12;;;;;;;7.05;2.75;;;6.80;99.90;;;;;;4978157;28;20049;-74
2022/02/15 01:27:38;;;;;;;3.97;2.58;;;6.80;99.90;;;;;;4950327;28;20042;-74
2022/02/15 01:30:06;;;;;;;4.18;1.92;;;6.80;99.90;;;;;;4981010;28;20037;-74
2022/02/15 01:32:33;;;;;;;3.88;2.30;;;6.80;99.90;;;;;;4977443;28;20034;-74
2022/02/15 01:35:00;;;;;;;5.15;2.72;;;6.80;99.90;;;;;;4976144;28;20397;-73
2022/02/15 01:37:27;;;;;;;6.20;3.10;;;6.80;99.90;;;;;;4986015;28;20109;-74
2022/02/15 01:39:53;;;;;;;9.65;3.72;;;6.80;99.90;;;;;;4976967;28;20034;-73
2022/02/15 01:42:21;;;;;;;5.20;3.70;;;6.80;99.90;;;;;;4966582;28;20045;-75
2022/02/15 01:44:47;;;;;;;7.95;3.92;;;6.80;99.90;;;;;;4992912;28;20039;-75
2022/02/15 01:47:26;;;;;;;6.15;3.25;;;6.80;99.90;;;;;;4972757;28;20529;-74
2022/02/15 01:49:54;;;;;;;10.00;4.75;;;6.80;99.90;;;;;;4963120;28;20034;-74
2022/02/15 01:52:22;;;;;;;9.48;4.38;;;6.80;99.90;;;;;;4995739;28;20049;-74
2022/02/15 01:54:54;;;;;;;10.50;4.75;;;6.80;99.90;;;;;;4993360;28;20037;-73
2022/02/15 01:57:22;;;;;;;7.53;3.97;;;6.80;99.90;;;;;;4990776;28;20053;-74
2022/02/15 01:59:54;;;;;;;8.32;4.75;;;6.80;99.90;;;;;;4991933;28;20042;-73
2022/02/15 02:02:24;;;;;;;8.43;4.10;;;6.80;99.90;;;;;;4978161;28;20034;-73
2022/02/15 02:07:37;;;;;;;9.38;5.35;;;6.70;99.90;;;;;;4975077;28;20363;-73
2022/02/15 02:10:05;;;;;;;11.93;5.10;;;6.70;99.90;;;;;;4958919;28;20058;-74
2022/02/15 02:12:34;;;;;;;11.43;5.20;;;6.70;99.90;;;;;;4964852;28;20038;-75
2022/02/15 02:15:04;;;;;;;7.43;4.15;;;6.70;99.90;;;;;;4961643;28;20045;-76
2022/02/15 02:18:02;;;;;;;8.32;4.38;;;6.70;99.90;;;;;;4992942;28;20057;-75
2022/02/15 02:20:30;;;;;;;7.20;4.45;;;6.70;99.90;;;;;;4980908;28;20064;-75
2022/02/15 02:22:58;;;;;;;8.55;4.82;;;6.70;99.90;;;;;;4979512;28;20042;-75
2022/02/15 02:25:25;;;;;;;7.93;4.25;;;6.70;99.90;;;;;;4976378;28;20049;-75
2022/02/15 02:27:54;;;;;;;9.90;5.20;;;6.70;99.90;;;;;;4992450;28;20039;-75
2022/02/15 02:30:20;;;;;;;12.35;5.28;;;6.70;99.90;;;;;;4979337;28;20046;-75
2022/02/15 02:32:52;;;;;;;7.75;4.95;;;6.70;99.90;;;;;;4979738;28;20041;-76
2022/02/15 02:35:21;;;;;;;11.43;5.38;;;6.70;99.90;;;;;;4978217;28;20046;-75
2022/02/15 02:37:49;;;;;;;8.93;5.38;;;6.70;99.90;;;;;;4974302;28;20026;-75
2022/02/15 02:40:16;;;;;;;12.82;4.82;;;6.60;99.90;;;;;;4980826;28;20384;-76
2022/02/15 02:42:43;;;;;;;8.20;5.60;;;6.60;99.90;;;;;;4998026;28;20458;-76
2022/02/15 02:45:18;;;;;;;10.13;4.75;;;6.60;99.90;;;;;;4976338;28;20041;-76
2022/02/15 02:47:47;;;;;;;8.20;4.63;;;6.60;99.90;;;;;;4976451;28;20038;-76
2022/02/15 02:50:16;;;;;;;9.20;4.38;;;6.60;99.90;;;;;;4993092;28;20038;-76
2022/02/15 02:52:45;;;;;;;9.45;4.32;;;6.60;99.90;;;;;;4968423;28;20478;-76
2022/02/15 02:55:15;;;;;;;8.97;4.70;;;6.60;99.90;;;;;;4976064;28;20050;-75
2022/02/15 02:57:43;;;;;;;9.60;4.38;;;6.50;99.90;;;;;;4992530;28;20273;-76
2022/02/15 03:00:13;;;;;;;7.50;3.20;;;6.50;99.90;;;;;;4972884;28;20488;-76
2022/02/15 03:03:12;;;;;;;7.97;3.60;;;6.50;99.90;;;;;;4954898;28;20038;-76
2022/02/15 03:05:43;;;;;;;8.57;3.10;;;6.50;99.90;;;;;;4979275;28;20050;-76
2022/02/15 03:08:10;;;;;;;5.30;3.53;;;6.50;99.90;;;;;;4989642;28;20038;-76
2022/02/15 03:10:37;;;;;;;7.38;2.47;;;6.50;99.90;;;;;;4959332;28;20045;-76
2022/02/15 03:13:07;;;;;;;9.98;4.10;;;6.50;99.90;;;;;;4993011;28;20389;-75
2022/02/15 03:15:33;;;;;;;7.90;3.10;;;6.50;99.90;;;;;;4961646;28;20034;-76
2022/02/15 03:18:02;;;;;;;4.82;2.20;;;6.40;99.90;;;;;;4960655;28;20054;-76
2022/02/15 03:20:30;;;;;;;4.38;2.55;;;6.50;99.90;;;;;;4992210;28;20035;-76
2022/02/15 03:22:57;;;;;;;5.57;2.50;;;6.40;99.90;;;;;;4978301;28;20034;-76
2022/02/15 03:25:23;;;;;;;8.98;3.25;;;6.50;99.90;;;;;;4977862;28;20046;-76
2022/02/15 03:27:51;;;;;;;7.80;2.80;;;6.50;99.90;;;;;;4958982;28;20045;-76
2022/02/15 03:30:19;;;;;;;6.78;3.10;;;6.50;99.90;;;;;;4992054;28;20035;-76
2022/02/15 03:32:46;;;;;;;6.25;2.67;;;6.50;99.90;;;;;;4994295;28;20037;-76
2022/02/15 03:35:13;;;;;;;9.52;2.72;;;6.50;99.90;;;;;;4975331;28;20509;-76
2022/02/15 03:37:43;;;;;;;6.28;2.33;;;6.40;99.90;;;;;;4989436;28;20042;-76
2022/02/15 03:40:10;;;;;;;5.78;2.15;;;6.40;99.90;;;;;;4961699;28;20057;-76
2022/02/15 03:45:23;;;;;;;4.43;1.88;;;6.40;99.90;;;;;;4947918;28;20038;-76
2022/02/15 03:48:13;;;;;;;7.00;2.33;;;6.40;99.90;;;;;;4964294;28;20402;-76
2022/02/15 03:50:42;;;;;;;6.50;2.10;;;6.40;99.90;;;;;;4977355;28;20042;-76
2022/02/15 03:53:10;;;;;;;8.70;2.10;;;6.40;99.90;;;;;;4960513;28;20513;-75
2022/02/15 03:55:37;;;;;;;8.20;2.20;;;6.40;99.90;;;;;;4978444;28;20042;-76
2022/02/15 03:58:05;;;;;;;4.88;1.25;;;6.40;99.90;;;;;;4975779;28;20053;-76
2022/02/15 04:00:32;;;;;;;5.30;2.25;;;6.40;99.90;;;;;;4957092;28;20043;-76
2022/02/15 04:03:07;;;;;;;4.95;1.92;;;6.40;99.90;;;;;;4972988;28;20061;-76
2022/02/15 04:05:34;;;;;;;6.65;1.90;;;6.30;99.90;;;;;;4967689;28;20046;-76
2022/02/15 04:08:01;;;;;;;6.05;2.08;;;6.40;99.90;;;;;;4956867;28;20038;-76
2022/02/15 04:10:28;;;;;;;5.55;1.80;;;6.30;99.90;;;;;;4963539;28;20037;-76
2022/02/15 04:12:55;;;;;;;6.25;2.15;;;6.40;99.90;;;;;;4966589;28;20478;-76
2022/02/15 04:15:22;;;;;;;4.82;1.90;;;6.30;99.90;;;;;;4967726;28;20406;-76
2022/02/15 04:17:54;;;;;;;;;;;6.40;99.90;;;;;;4990400;28;20038;-76
2022/02/15 04:20:21;;;;;;;3.38;1.60;;;6.40;99.90;;;;;;4978955;28;19921;-76
2022/02/15 04:22:47;;;;;;;9.57;2.60;;;6.40;99.90;;;;;;4946408;28;20053;-76
2022/02/15 04:25:16;;;;;;;7.07;2.03;;;6.40;99.90;;;;;;4958957;28;20046;-76
2022/02/15 04:27:43;;;;;;;8.88;2.95;;;6.40;99.90;;;;;;4957746;28;20037;-76
2022/02/15 04:30:10;;;;;;;6.70;2.85;;;6.40;99.90;;;;;;4993649;28;20026;-76
2022/02/15 04:32:39;;;;;;;5.75;2.50;;;6.40;99.90;;;;;;4962538;28;20034;-76
2022/02/15 04:35:06;;;;;;;7.30;2.78;;;6.40;99.90;;;;;;4968468;28;20049;-76
2022/02/15 04:37:34;;;;;;;4.60;1.90;;;6.40;99.90;;;;;;4957482;28;20046;-77
2022/02/15 04:40:01;;;;;;;5.28;2.72;;;6.50;99.90;;;;;;4967516;28;20045;-76
2022/02/15 04:42:29;;;;;;;5.25;2.65;;;6.50;99.90;;;;;;4966997;28;20049;-76
2022/02/15 04:44:58;;;;;;;6.13;2.72;;;6.50;99.90;;;;;;4944324;28;20046;-77
2022/02/15 04:47:34;;;;;;;6.70;2.75;;;6.50;99.90;;;;;;4993048;28;20045;-76
2022/02/15 04:50:00;;;;;;;6.25;3.47;;;6.50;99.90;;;;;;4965683;28;20046;-76
2022/02/15 04:52:27;;;;;;;4.97;3.13;;;6.50;99.90;;;;;;4963623;28;20058;-76
2022/02/15 04:54:54;;;;;;;9.07;4.20;;;6.40;99.90;;;;;;4921365;28;20386;-76
2022/02/15 04:57:20;;;;;;;6.57;4.03;;;6.50;99.90;;;;;;4960632;28;20034;-77
2022/02/15 04:59:47;;;;;;;6.68;3.08;;;6.50;99.90;;;;;;4981310;28;20053;-77
2022/02/15 05:02:23;;;;;;;6.07;3.45;;;6.50;99.90;;;;;;4964677;28;20038;-76
2022/02/15 05:04:49;;;;;;;8.75;4.75;;;6.50;99.90;;;;;;4977973;28;20072;-76
2022/02/15 05:07:20;;;;;;;7.78;4.60;;;6.50;99.90;;;;;;4966326;28;20038;-76
2022/02/15 05:09:47;;;;;;;12.82;5.07;;;6.50;99.90;;;;;;4976285;28;20578;-77
2022/02/15 05:12:17;;;;;;;8.90;4.20;;;6.50;99.90;;;;;;4983251;28;20049;-76
2022/02/15 05:14:45;;;;;;;8.43;4.40;;;6.50;99.90;;;;;;4979154;28;20037;-76
2022/02/15 05:17:15;;;;;;;14.88;5.00;;;6.50;99.90;;;;;;4958136;28;20042;-76
2022/02/15 05:19:49;;;;;;;9.93;5.68;;;6.50;99.90;;;;;;4996509;28;20046;-76
2022/02/15 05:22:16;;;;;;;10.27;5.82;;;6.50;99.90;;;;;;4948391;28;20065;-76
2022/02/15 05:24:49;;;;;;;12.77;6.47;;;6.50;99.90;;;;;;4980215;28;20041;-76
2022/02/15 05:27:18;;;;;;;13.35;7.00;;;6.50;99.90;;;;;;4962919;28;20046;-77
2022/02/15 05:29:49;;;;;;;13.02;7.20;;;6.50;99.90;;;;;;4980198;28;20499;-75
2022/02/15 05:32:25;;;;;;;9.23;6.20;;;6.60;99.90;;;;;;4967248;28;20037;-78
2022/02/15 05:34:55;;;;;;;11.38;7.22;;;6.60;99.90;;;;;;4993859;28;20042;-74
2022/02/15 05:37:22;;;;;;;14.55;7.22;;;6.60;99.90;;;;;;4991688;28;20977;-74
2022/02/15 05:39:51;;;;;;;14.55;8.88;;;6.60;99.90;;;;;;4972476;28;20045;-74
2022/02/15 05:42:40;;;;;;;17.63;9.07;;;6.70;99.90;;;;;;4964073;28;20041;-74
2022/02/15 05:45:08;;;;;;;20.13;9.80;;;6.70;99.90;;;;;;4946592;28;20409;-74
2022/02/15 05:47:40;;;;;;;15.60;9.13;;;6.70;99.90;;;;;;4957272;28;20049;-74
2022/02/15 05:52:53;;;;;;;17.33;9.18;;;6.70;99.90;;;;;;4973463;28;20049;-74
2022/02/15 05:55:19;;;;;;;15.45;8.82;;;6.80;99.90;;;;;;4928294;28;20048;-74
2022/02/15 05:57:46;;;;;;;18.40;10.82;;;6.80;99.90;;;;;;4962764;28;20052;-75
2022/02/15 06:00:15;;;;;;;18.73;9.93;;;6.80;99.90;;;;;;4994422;28;20045;-75
2022/02/15 06:02:43;;;;;;;17.67;11.07;;;6.80;99.90;;;;;;4977820;28;20967;-75
2022/02/15 06:05:14;;;;;;;;;;;6.80;99.90;;;;;;4992476;28;20055;-77
2022/02/15 06:07:46;;;;;;;29.10;13.40;;;6.90;99.90;;;;;;4962796;28;19916;-75
2022/02/15 06:10:25;;;;;;;17.35;10.35;;;6.90;99.90;;;;;;4995418;28;20042;-75
2022/02/15 06:12:53;;;;;;;21.17;11.07;;;6.80;99.90;;;;;;4975374;28;20485;-75
2022/02/15 06:15:23;;;;;;;19.08;12.05;;;6.80;99.90;;;;;;4966469;28;20398;-75
2022/02/15 06:18:10;;;;;;;16.73;11.57;;;6.80;99.90;;;;;;4971816;28;20053;-75
2022/02/15 06:20:46;;;;;;;16.42;10.43;;;6.90;99.90;;;;;;4997650;28;20034;-75
2022/02/15 06:23:17;;;;;;;22.67;12.52;;;6.80;99.90;;;;;;4959181;28;20038;-75
2022/02/15 06:25:45;;;;;;;16.30;11.20;;;6.80;99.90;;;;;;4958589;28;20053;-75
2022/02/15 06:28:13;;;;;;;20.13;11.88;;;6.90;99.90;;;;;;4971495;28;20478;-75
2022/02/15 06:31:04;;;;;;;24.17;12.15;;;6.90;99.90;;;;;;4996598;28;20049;-75
2022/02/15 06:33:34;;;;;;;23.38;12.88;;;6.90;99.90;;;;;;4979150;28;20036;-74
2022/02/15 06:36:04;;;;;;;19.95;11.77;;;6.90;99.90;;;;;;4991405;28;20045;-75
2022/02/15 06:38:33;;;;;;;23.63;14.15;;;6.90;99.90;;;;;;4972584;28;20038;-74
2022/02/15 06:41:09;;;;;;;21.30;12.77;;;6.90;99.90;;;;;;4928804;28;20042;-74
2022/02/15 06:43:51;;;;;;;23.17;13.02;;;6.90;99.90;;;;;;4965925;28;20385;-75
2022/02/15 06:46:19;;;;;;;21.10;11.85;;;6.90;99.90;;;;;;4976096;28;20038;-74
2022/02/15 06:48:46;;;;;;;21.77;11.80;;;7.00;99.90;;;;;;4974769;28;20382;-74
2022/02/15 06:51:12;;;;;;;20.60;12.02;;;6.90;99.90;;;;;;4959087;28;20026;-74
2022/02/15 06:53:59;;;;;;;25.10;14.07;;;6.90;99.90;;;;;;4976020;28;20027;-75
2022/02/15 06:56:51;;;;;;;19.65;12.02;;;6.90;99.90;;;;;;4958962;28;20050;-75
2022/02/15 06:59:23;;;;;;;24.50;13.85;;;6.90;99.90;;;;;;4992845;28;20445;-78
2022/02/15 07:01:50;;;;;;;24.13;13.13;;;7.00;99.90;;;;;;4977537;28;20034;-78
2022/02/15 07:04:18;;;;;;;21.67;12.32;;;6.90;99.90;;;;;;4968337;28;20046;-76
2022/02/15 07:06:45;;;;;;;20.20;12.98;;;7.00;99.90;;;;;;4951977;28;20070;-76
2022/02/15 07:09:12;;;;;;;21.92;12.82;;;7.00;99.90;;;;;;4946345;28;20062;-75
2022/02/15 07:11:57;;;;;;;26.00;13.93;;;7.00;99.90;;;;;;4937169;28;20041;-75
2022/02/15 07:14:24;;;;;;;25.52;13.10;;;7.00;99.90;;;;;;4936974;28;20074;-73
2022/02/15 07:16:55;;;;;;;21.98;12.65;;;7.00;99.90;;;;;;4949889;28;20053;-75
2022/02/15 07:19:24;;;;;;;23.10;13.10;;;7.00;99.90;;;;;;4936133;28;20410;-75
2022/02/15 07:22:09;;;;;;;23.10;13.77;;;7.00;99.90;;;;;;4955027;28;20047;-75
2022/02/15 07:24:51;;;;;;;24.92;13.55;;;7.10;99.90;;;;;;4968689;28;20059;-75
2022/02/15 07:27:29;;;;;;;18.35;10.70;;;7.10;99.90;;;;;;4935810;28;20058;-75
2022/02/15 07:29:58;;;;;;;21.83;12.15;;;7.10;99.90;;;;;;4952590;28;20065;-76
2022/02/15 07:32:45;;;;;;;23.00;13.40;;;7.10;99.90;;;;;;4948265;28;20494;-76
2022/02/15 07:35:11;;;;;;;25.88;14.13;;;7.10;99.90;;;;;;4941913;28;20046;-76
2022/02/15 07:37:38;;;;;;;19.77;11.48;;;7.10;99.90;;;;;;4990366;28;20068;-76
2022/02/15 07:40:05;;;;;;;18.60;11.48;;;7.10;99.90;;;;;;4977876;28;20046;-76
2022/02/15 07:42:31;;;;;;;21.20;12.27;;;7.10;99.90;;;;;;4971791;28;20026;-76
2022/02/15 07:44:57;;;;;;;21.05;11.90;;;7.20;99.90;;;;;;4992710;28;20050;-76
2022/02/15 07:47:24;;;;;;;22.42;11.85;;;7.20;99.90;;;;;;4974846;28;20057;-75
2022/02/15 07:49:50;;;;;;;21.20;12.35;;;7.10;99.90;;;;;;4992534;28;20038;-75
2022/02/15 07:52:16;;;;;;;20.20;11.00;;;7.20;99.90;;;;;;4958580;28;20035;-75
2022/02/15 07:54:43;;;;;;;22.15;12.85;;;7.20;99.90;;;;;;4938917;28;20027;-76
2022/02/15 07:57:11;;;;;;;18.20;10.57;;;7.30;99.90;;;;;;4972505;28;20045;-74
2022/02/15 07:59:38;;;;;;;24.75;10.88;;;7.30;99.90;;;;;;4970541;28;20049;-76
2022/02/15 08:02:04;;;;;;;20.77;10.70;;;7.30;99.90;;;;;;4975440;28;20041;-73
2022/02/15 08:04:31;;;;;;;17.15;10.32;;;7.30;99.90;;;;;;4941565;28;20073;-76
2022/02/15 08:07:00;;;;;;;17.63;10.07;;;7.30;99.90;;;;;;4973012;28;20053;-76
2022/02/15 08:09:27;;;;;;;17.42;9.63;;;7.30;99.90;;;;;;4972719;28;20038;-76
2022/02/15 08:11:57;;;;;;;18.88;11.07;;;7.30;99.90;;;;;;4990172;28;20038;-76
2022/02/15 08:14:25;;;;;;;18.85;10.35;;;7.30;99.90;;;;;;4973156;28;20030;-76
2022/02/15 08:16:53;;;;;;;20.42;10.30;;;7.40;99.90;;;;;;4991891;28;20052;-74
2022/02/15 08:19:25;;;;;;;24.58;10.63;;;7.40;99.90;;;;;;4990998;28;20038;-74
2022/02/15 08:21:57;;;;;;;20.48;10.32;;;7.40;99.90;;;;;;4993143;28;20038;-74
2022/02/15 08:24:29;;;;;;;20.77;10.25;;;7.50;99.90;;;;;;4992697;28;20052;-73
2022/02/15 08:27:00;;;;;;;24.42;10.95;;;7.50;99.90;;;;;;4958483;28;20061;-73
2022/02/15 08:29:28;;;;;;;20.90;10.02;;;7.50;99.90;;;;;;4993007;28;20030;-73
2022/02/15 08:31:55;;;;;;;19.98;9.25;;;7.50;99.90;;;;;;4978133;28;20050;-75
2022/02/15 08:34:21;;;;;;;18.23;9.13;;;7.50;99.90;;;;;;4994000;28;20038;-73
2022/02/15 08:36:48;;;;;;;19.63;8.38;;;7.50;99.90;;;;;;4975455;28;20046;-75
2022/02/15 08:39:15;;;;;;;15.20;7.85;;;7.50;99.90;;;;;;4991430;28;20045;-76
2022/02/15 08:41:42;;;;;;;15.57;8.75;;;7.60;99.90;;;;;;4976298;28;20049;-76
2022/02/15 08:44:09;;;;;;;19.58;9.15;;;7.70;99.90;;;;;;4992304;28;20046;-74
2022/02/15 08:46:36;;;;;;;20.67;9.45;;;7.80;99.90;;;;;;4974927;28;20049;-74
2022/02/15 08:49:02;;;;;;;14.18;7.63;;;7.90;99.90;;;;;;4974794;28;20030;-73
2022/02/15 08:51:29;;;;;;;15.73;7.28;;;7.90;99.90;;;;;;4976168;28;20377;-74
2022/02/15 08:53:55;;;;;;;17.05;6.97;;;7.90;99.90;;;;;;4975903;28;20045;-73
2022/02/15 08:56:22;;;;;;;17.23;6.30;;;8.00;99.90;;;;;;4975047;28;20485;-73
2022/02/15 08:58:49;;;;;;;24.38;7.88;;;8.00;99.90;;;;;;4991710;28;20026;-73
2022/02/15 09:01:16;;;;;;;15.57;5.93;;;8.00;99.90;;;;;;4992757;28;20038;-73
2022/02/15 09:03:43;;;;;;;17.98;5.70;;;8.10;99.90;;;;;;4974970;28;20057;-76
2022/02/15 09:06:10;;;;;;;17.65;6.25;;;8.10;99.90;;;;;;4975172;28;20536;-73
2022/02/15 09:08:36;;;;;;;20.15;5.43;;;8.10;99.90;;;;;;4970158;28;20031;-76
2022/02/15 09:11:03;;;;;;;13.73;3.85;;;8.10;99.90;;;;;;4953479;28;20041;-76
2022/02/15 09:13:30;;;;;;;15.75;4.57;;;8.10;99.90;;;;;;4992380;28;20034;-73
2022/02/15 09:15:57;;;;;;;8.93;3.38;;;8.10;99.90;;;;;;4974712;28;20034;-73
2022/02/15 09:18:23;;;;;;;7.95;2.78;;;8.00;99.90;;;;;;4973399;28;20041;-73
2022/02/15 09:20:50;;;;;;;9.48;3.25;;;7.80;99.90;;;;;;4976885;28;20053;-72
2022/02/15 09:23:17;;;;;;;11.38;3.35;;;7.70;99.90;;;;;;4991701;28;20044;-78
2022/02/15 09:25:43;;;;;;;7.97;2.63;;;7.70;99.90;;;;;;4969885;28;20034;-75
2022/02/15 09:28:09;;;;;;;9.40;2.40;;;7.70;99.90;;;;;;4990989;28;20049;-76
2022/02/15 09:30:36;;;;;;;11.07;2.95;;;7.70;99.90;;;;;;4994704;28;20026;-76
2022/02/15 09:33:04;;;;;;;8.15;2.55;;;7.80;99.90;;;;;;4976885;28;20026;-75
2022/02/15 09:35:31;;;;;;;10.05;2.75;;;8.00;99.90;;;;;;4999596;28;20062;-76
2022/02/15 09:37:58;;;;;;;11.95;2.95;;;8.30;99.90;;;;;;4994601;28;20049;-75
2022/02/15 09:40:24;;;;;;;10.10;3.15;;;8.50;99.90;;;;;;4996953;28;20038;-74
2022/02/15 09:42:51;;;;;;;11.80;3.25;;;8.70;99.90;;;;;;4994294;28;20037;-76
2022/02/15 09:45:18;;;;;;;9.73;2.40;;;8.90;99.90;;;;;;4994816;28;20462;-74
2022/02/15 09:47:46;;;;;;;12.13;2.58;;;9.10;99.90;;;;;;4991820;28;20485;-74
2022/02/15 09:50:12;;;;;;;9.57;2.42;;;9.20;99.90;;;;;;4995548;28;20034;-75
2022/02/15 09:52:46;;;;;;;8.52;2.35;;;9.20;99.90;;;;;;4992507;28;20504;-75
2022/02/15 09:55:13;;;;;;;10.73;2.60;;;9.20;99.90;;;;;;4989976;28;20034;-75
2022/02/15 09:57:39;;;;;;;8.98;1.52;;;9.20;99.90;;;;;;4973760;28;20482;-75
2022/02/15 10:00:07;;;;;;;13.57;2.50;;;9.30;99.90;;;;;;4994596;28;20493;-75
2022/02/15 10:02:41;;;;;;;8.82;2.10;;;9.30;99.90;;;;;;4991831;28;20046;-76
2022/02/15 10:05:16;;;;;;;13.65;2.03;;;9.30;99.90;;;;;;4992915;28;20030;-75
2022/02/15 10:07:48;;;;;;;10.73;2.20;;;9.30;99.90;;;;;;4958610;28;20375;-75
2022/02/15 10:10:31;;;;;;;13.23;1.60;;;9.30;99.90;;;;;;4996816;28;20041;-76
2022/02/15 10:13:10;;;;;;;10.80;1.85;;;9.30;99.90;;;;;;4976126;28;20042;-74
2022/02/15 10:15:40;;;;;;;7.00;1.52;;;9.40;99.90;;;;;;4994187;28;20055;-73
2022/02/15 10:18:07;;;;;;;10.85;2.42;;;9.40;99.90;;;;;;4973329;28;20026;-73
2022/02/15 10:20:35;;;;;;;8.05;1.50;;;9.50;99.90;;;;;;4991051;28;20077;-73
2022/02/15 10:23:19;;;;;;;9.23;2.55;;;9.60;99.90;;;;;;4967766;28;20133;-73
2022/02/15 10:25:50;;;;;;;13.10;2.30;;;9.60;99.90;;;;;;4988268;28;20057;-77
2022/02/15 10:28:19;;;;;;;10.07;1.08;;;9.50;99.90;;;;;;4978274;28;20453;-76
2022/02/15 10:30:49;;;;;;;4.93;1.17;;;9.30;99.90;;;;;;4961090;28;20042;-75
2022/02/15 10:33:18;;;;;;;4.47;1.00;;;9.10;99.90;;;;;;4995542;28;20034;-75
2022/02/15 10:36:03;;;;;;;8.15;1.40;;;9.10;99.90;;;;;;4973189;28;20030;-75
2022/02/15 10:38:33;;;;;;;8.20;0.80;;;9.10;99.90;;;;;;4971715;28;20030;-76
2022/02/15 10:41:05;;;;;;;7.95;0.60;;;9.40;99.90;;;;;;4958757;28;20034;-76
2022/02/15 10:43:54;;;;;;;4.82;0.65;;;9.70;99.90;;;;;;4978667;28;20034;-75
2022/02/15 10:46:25;;;;;;;9.63;1.08;;;10.20;99.90;;;;;;4976998;28;20050;-76
2022/02/15 10:48:53;;;;;;;7.57;1.02;;;10.70;99.90;;;;;;4992153;28;20346;-76
2022/02/15 10:51:20;;;;;;;7.03;0.90;;;11.20;99.90;;;;;;4962255;28;20049;-78
2022/02/15 10:53:47;;;;;;;10.80;0.80;;;11.50;99.90;;;;;;4992955;28;20347;-76
2022/02/15 10:56:14;;;;;;;6.25;0.73;;;11.60;99.90;;;;;;4990348;28;20034;-74
2022/02/15 10:58:41;;;;;;;8.10;0.85;;;11.60;99.90;;;;;;4973234;28;20049;-74
2022/02/15 11:01:09;;;;;;;6.45;0.98;;;11.70;99.90;;;;;;4991435;28;20439;-74
2022/02/15 11:03:39;;;;;;;6.63;1.10;;;11.90;99.90;;;;;;4971758;28;20490;-77
2022/02/15 11:06:08;;;;;;;5.35;0.70;;;12.10;99.90;;;;;;4968865;28;20401;-73
2022/02/15 11:08:41;;;;;;;7.55;0.90;;;12.10;99.90;;;;;;4972128;28;20038;-78
2022/02/15 11:11:09;;;;;;;;;;;12.40;99.90;;;;;;4985239;28;20494;-79
2022/02/15 11:13:37;;;;;;;6.53;1.52;;;12.80;99.90;;;;;;4984087;28;19913;-77
2022/02/15 11:16:14;;;;;;;5.60;0.70;;;12.90;99.90;;;;;;4992083;28;20037;-76
2022/02/15 11:18:41;;;;;;;6.93;0.82;;;12.50;99.90;;;;;;4990986;28;20038;-77
2022/02/15 11:21:19;;;;;;;6.00;0.82;;;12.10;99.90;;;;;;4972346;28;20049;-75
2022/02/15 11:23:58;;;;;;;6.40;0.68;;;11.70;99.90;;;;;;4991429;28;20033;-75
2022/02/15 11:26:39;;;;;;;6.03;1.17;;;11.40;99.90;;;;;;4993071;28;20035;-76
2022/02/15 11:29:06;;;;;;;10.23;1.23;;;11.40;99.90;;;;;;4970366;28;20033;-75
2022/02/15 11:31:38;;;;;;;6.10;0.68;;;11.40;99.90;;;;;;4990854;28;20033;-76
2022/02/15 11:34:07;;;;;;;7.53;0.60;;;11.30;99.90;;;;;;4972541;28;20038;-76
2022/02/15 11:36:46;;;;;;;9.48;0.90;;;11.10;99.90;;;;;;4972596;28;20033;-76
2022/02/15 11:39:25;;;;;;;5.00;0.75;;;10.90;99.90;;;;;;4991951;28;20382;-76
2022/02/15 11:41:56;;;;;;;3.75;0.60;;;10.60;99.90;;;;;;4993285;28;20034;-74
2022/02/15 11:44:31;;;;;;;9.18;0.70;;;10.50;99.90;;;;;;4975822;28;20134;-77
2022/02/15 11:47:15;;;;;;;7.95;0.88;;;10.50;99.90;;;;;;4990947;28;21610;-77
2022/02/15 11:49:56;;;;;;;8.00;0.80;;;10.50;99.90;;;;;;4992940;28;20049;-76
2022/02/15 11:52:24;;;;;;;8.00;0.60;;;10.50;99.90;;;;;;4982155;28;20046;-75
2022/02/15 11:54:50;;;;;;;9.75;1.00;;;10.40;99.90;;;;;;4994010;28;20033;-75
2022/02/15 11:57:17;;;;;;;8.07;0.77;;;10.40;99.90;;;;;;4992940;28;20042;-75
2022/02/15 11:59:52;;;;;;;5.00;0.52;;;10.40;99.90;;;;;;4992667;28;20064;-75
2022/02/15 12:02:19;;;;;;;5.05;0.70;;;10.50;99.90;;;;;;4994930;28;20035;-75
2022/02/15 12:04:52;;;;;;;3.08;0.43;;;10.50;99.90;;;;;;4983210;28;20062;-75
2022/02/15 12:07:26;;;;;;;7.20;0.95;;;10.50;99.90;;;;;;4975437;28;20069;-75
2022/02/15 12:10:05;;;;;;;6.10;1.33;;;10.60;99.90;;;;;;4964677;28;20506;-73
2022/02/15 12:12:36;;;;;;;3.83;0.60;;;10.70;99.90;;;;;;4980379;28;20023;-73
2022/02/15 12:15:06;;;;;;;4.57;0.90;;;10.70;99.90;;;;;;4997072;28;20486;-75
2022/02/15 12:17:40;;;;;;;7.25;0.60;;;10.80;99.90;;;;;;4976178;28;20053;-76
2022/02/15 12:20:07;;;;;;;5.55;0.50;;;10.80;99.90;;;;;;4978389;28;20473;-72
2022/02/15 12:22:39;;;;;;;8.02;0.73;;;11.00;99.90;;;;;;4993456;28;20477;-77
2022/02/15 12:25:46;;;;;;;5.82;0.68;;;11.20;99.90;;;;;;4982094;28;20034;-76
2022/02/15 12:28:13;;;;;;;4.00;0.60;;;11.70;99.90;;;;;;4970063;28;20043;-75
2022/02/15 12:30:43;;;;;;;7.75;0.90;;;12.10;99.90;;;;;;4979327;28;20057;-75
2022/02/15 12:33:10;;;;;;;4.95;0.60;;;12.10;99.90;;;;;;4991712;28;20030;-73
2022/02/15 12:35:36;;;;;;;2.83;0.60;;;11.90;99.90;;;;;;4995355;28;20034;-74
2022/02/15 12:38:05;;;;;;;6.53;0.93;;;11.80;99.90;;;;;;4957835;28;20038;-73
2022/02/15 12:40:32;;;;;;;4.82;0.70;;;11.60;99.90;;;;;;4981986;28;20049;-72
2022/02/15 12:42:58;;;;;;;5.20;0.80;;;11.50;99.90;;;;;;4975944;28;20041;-73
2022/02/15 12:45:27;;;;;;;3.95;0.70;;;11.50;99.90;;;;;;4980211;28;20030;-73
2022/02/15 12:47:53;;;;;;;4.72;0.80;;;11.80;99.90;;;;;;4958404;28;20043;-73
2022/02/15 12:50:21;;;;;;;4.18;1.15;;;12.40;99.90;;;;;;4992235;28;20042;-75
2022/02/15 12:52:47;;;;;;;4.15;0.60;;;12.70;99.90;;;;;;4978360;28;20034;-75
2022/02/15 12:55:21;;;;;;;6.28;0.85;;;12.60;99.90;;;;;;4990486;28;20035;-75
2022/02/15 12:57:49;;;;;;;5.55;1.23;;;12.50;99.90;;;;;;4988019;28;20038;-74
2022/02/15 13:00:17;;;;;;;3.03;0.65;;;12.20;99.90;;;;;;4968942;28;20039;-74
2022/02/15 13:02:48;;;;;;;2.92;0.70;;;11.90;99.90;;;;;;4991894;28;20102;-75
2022/02/15 13:05:22;;;;;;;4.80;0.55;;;11.70;99.90;;;;;;4976596;28;20050;-74
2022/02/15 13:07:50;;;;;;;2.35;0.63;;;11.50;99.90;;;;;;4989975;28;20045;-74
2022/02/15 13:10:22;;;;;;;4.05;0.75;;;11.40;99.90;;;;;;4990250;28;20103;-74
2022/02/15 13:12:48;;;;;;;5.90;1.33;;;11.30;99.90;;;;;;4976344;28;20030;-74